createdAt,value
2023-03-19T00:00:37.870Z,57.15
2023-03-19T00:03:31.284Z,57.42
2023-03-19T00:06:03.991Z,57.28
2023-03-19T00:08:36.752Z,57.54
2023-03-19T00:11:14.330Z,57.52
2023-03-19T00:13:47.782Z,57.63
2023-03-19T00:16:21.167Z,57.67
2023-03-19T00:18:53.757Z,57.57
2023-03-19T00:21:26.658Z,57.32
2023-03-19T00:24:02.399Z,57.37
2023-03-19T00:26:36.032Z,57.92
2023-03-19T00:29:09.135Z,58.24
2023-03-19T00:31:42.835Z,58.32
2023-03-19T00:34:18.407Z,58.25
2023-03-19T00:36:51.323Z,58.07
2023-03-19T00:39:24.338Z,58.46
2023-03-19T00:41:56.969Z,58.42
2023-03-19T00:56:04.482Z,59.16
2023-03-19T00:58:38.813Z,59.45
2023-03-19T01:01:13.088Z,59.36
2023-03-19T01:03:47.541Z,59.57
2023-03-19T01:06:21.914Z,59.50
2023-03-19T01:08:54.404Z,59.49
2023-03-19T01:11:27.244Z,59.71
2023-03-19T01:14:00.742Z,59.80
2023-03-19T01:16:34.452Z,59.69
2023-03-19T01:19:07.046Z,59.94
2023-03-19T01:21:40.045Z,60.25
2023-03-19T01:24:12.878Z,60.12
2023-03-19T01:26:46.545Z,60.18
2023-03-19T01:29:25.781Z,60.22
2023-03-19T01:32:00.103Z,60.30
2023-03-19T01:34:50.596Z,60.20
2023-03-19T01:37:23.151Z,60.17
2023-03-19T01:39:56.216Z,60.04
2023-03-19T01:42:29.058Z,60.05
2023-03-19T01:45:39.683Z,59.87
2023-03-19T01:48:39.453Z,59.63
2023-03-19T01:51:20.402Z,59.77
2023-03-19T01:53:55.624Z,59.93
2023-03-19T01:57:12.791Z,59.72
2023-03-19T02:00:22.423Z,59.76
2023-03-19T02:03:00.764Z,59.53
2023-03-19T02:05:48.933Z,59.70
2023-03-19T02:08:24.655Z,59.69
2023-03-19T02:11:02.958Z,60.03
2023-03-19T02:13:38.175Z,60.14
2023-03-19T02:16:14.079Z,60.23
2023-03-19T02:18:49.208Z,60.31
2023-03-19T02:21:25.176Z,60.07
2023-03-19T02:24:04.766Z,60.14
2023-03-19T02:27:10.512Z,60.17
2023-03-19T02:29:49.345Z,60.29
2023-03-19T02:32:22.444Z,60.54
2023-03-19T02:34:55.157Z,60.54
2023-03-19T02:37:33.632Z,60.58
2023-03-19T02:40:12.866Z,60.52
2023-03-19T02:42:45.289Z,60.36
2023-03-19T02:45:18.762Z,60.19
2023-03-19T02:47:51.288Z,60.01
2023-03-19T02:50:26.147Z,59.95
2023-03-19T02:53:01.182Z,59.93
2023-03-19T02:55:33.549Z,59.86
2023-03-19T02:58:07.509Z,59.88
2023-03-19T03:00:41.348Z,60.16
2023-03-19T03:03:14.072Z,60.50
2023-03-19T03:05:46.437Z,60.48
2023-03-19T03:08:18.912Z,60.56
2023-03-19T03:10:51.351Z,60.59
2023-03-19T03:13:24.021Z,60.55
2023-03-19T03:15:57.827Z,60.64
2023-03-19T03:18:31.617Z,60.69
2023-03-19T03:21:05.159Z,60.45
2023-03-19T03:23:38.831Z,60.62
2023-03-19T03:26:12.040Z,60.60
2023-03-19T03:28:44.679Z,60.91
2023-03-19T03:31:17.494Z,61.23
2023-03-19T03:33:52.708Z,61.48
2023-03-19T03:36:29.424Z,61.69
2023-03-19T03:39:01.896Z,61.66
2023-03-19T03:41:34.740Z,61.59
2023-03-19T03:44:09.556Z,61.37
2023-03-19T03:46:44.787Z,61.39
2023-03-19T03:49:17.315Z,61.19
2023-03-19T03:51:49.732Z,61.00
2023-03-19T03:54:22.695Z,60.82
2023-03-19T03:56:55.929Z,60.64
2023-03-19T03:59:29.045Z,60.40
2023-03-19T04:02:02.008Z,60.59
2023-03-19T04:04:34.829Z,60.52
2023-03-19T04:07:09.351Z,60.47
2023-03-19T04:09:49.507Z,60.16
2023-03-19T04:12:23.205Z,59.90
2023-03-19T04:14:56.158Z,59.90
2023-03-19T04:17:31.115Z,60.14
2023-03-19T04:20:05.040Z,60.16
2023-03-19T04:22:37.837Z,60.14
2023-03-19T04:25:13.867Z,60.16
2023-03-19T04:27:47.624Z,60.08
2023-03-19T04:30:20.327Z,60.29
2023-03-19T04:32:54.062Z,60.32
2023-03-19T04:35:28.540Z,60.53
2023-03-19T04:38:01.149Z,60.23
2023-03-19T04:40:33.985Z,60.48
2023-03-19T04:43:07.874Z,60.45
2023-03-19T04:45:42.854Z,60.42
2023-03-19T04:48:17.201Z,60.38
2023-03-19T04:50:52.881Z,60.53
2023-03-19T04:53:26.714Z,60.80
2023-03-19T04:56:00.507Z,60.77
2023-03-19T04:58:32.971Z,60.78
2023-03-19T05:01:08.438Z,61.12
2023-03-19T05:04:02.611Z,61.10
2023-03-19T05:06:37.886Z,60.79
2023-03-19T05:09:12.174Z,60.85
2023-03-19T05:11:44.844Z,61.06
2023-03-19T05:14:23.375Z,61.03
2023-03-19T05:17:16.618Z,60.87
2023-03-19T05:20:14.543Z,61.04
2023-03-19T05:22:53.999Z,61.34
2023-03-19T05:25:27.665Z,61.33
2023-03-19T05:28:02.555Z,61.48
2023-03-19T05:30:37.079Z,61.87
2023-03-19T05:33:15.370Z,62.03
2023-03-19T05:35:51.948Z,62.36
2023-03-19T05:38:32.908Z,62.42
2023-03-19T05:41:11.035Z,62.52
2023-03-19T05:44:02.209Z,62.70
2023-03-19T05:46:53.635Z,62.78
2023-03-19T05:49:27.387Z,63.04
2023-03-19T05:52:00.467Z,62.97
2023-03-19T05:54:33.170Z,62.97
2023-03-19T05:57:45.354Z,63.08
2023-03-19T06:00:29.904Z,62.62
2023-03-19T06:03:02.696Z,62.65
2023-03-19T06:05:57.968Z,63.32
2023-03-19T06:08:47.095Z,63.13
2023-03-19T06:11:30.092Z,63.26
2023-03-19T06:14:22.219Z,63.53
2023-03-19T06:17:10.237Z,63.41
2023-03-19T06:19:43.685Z,63.47
2023-03-19T06:22:16.939Z,63.80
2023-03-19T06:24:49.881Z,63.74
2023-03-19T06:27:24.227Z,63.40
2023-03-19T06:29:59.020Z,63.54
2023-03-19T06:32:37.378Z,63.22
2023-03-19T06:35:13.898Z,63.34
2023-03-19T06:37:46.636Z,63.53
2023-03-19T06:40:19.820Z,63.39
2023-03-19T06:42:53.542Z,62.72
2023-03-19T06:45:26.582Z,62.57
2023-03-19T06:47:59.887Z,62.55
2023-03-19T06:50:32.889Z,62.73
2023-03-19T06:53:06.392Z,62.21
2023-03-19T06:55:40.759Z,62.58
2023-03-19T06:58:14.126Z,62.97
2023-03-19T07:00:47.128Z,62.49
2023-03-19T07:03:20.183Z,62.28
2023-03-19T07:05:53.315Z,61.77
2023-03-19T07:08:29.791Z,61.50
2023-03-19T07:11:09.342Z,61.43
2023-03-19T07:13:43.052Z,61.14
2023-03-19T07:16:16.932Z,61.44
2023-03-19T07:18:50.283Z,61.58
2023-03-19T07:21:23.125Z,61.71
2023-03-19T07:23:58.431Z,61.82
2023-03-19T07:26:33.311Z,62.11
2023-03-19T07:29:07.969Z,61.13
2023-03-19T07:31:42.545Z,60.95
2023-03-19T07:34:15.270Z,61.23
2023-03-19T07:36:49.259Z,60.59
2023-03-19T07:39:24.231Z,60.18
2023-03-19T07:41:58.255Z,60.28
2023-03-19T07:44:30.980Z,59.96
2023-03-19T07:47:05.892Z,60.19
2023-03-19T07:49:37.871Z,59.99
2023-03-19T07:52:11.400Z,60.31
2023-03-19T07:54:45.191Z,60.21
2023-03-19T07:57:19.688Z,59.65
2023-03-19T07:59:52.531Z,59.24
2023-03-19T08:02:26.948Z,58.29
2023-03-19T08:05:05.425Z,58.05
2023-03-19T08:07:39.606Z,58.37
2023-03-19T08:10:14.604Z,57.58
2023-03-19T08:12:48.980Z,56.99
2023-03-19T08:15:22.822Z,57.19
2023-03-19T08:18:03.847Z,57.75
2023-03-19T08:20:39.150Z,57.81
2023-03-19T08:23:12.676Z,60.09
2023-03-19T08:25:45.938Z,61.41
2023-03-19T08:28:18.823Z,61.27
2023-03-19T08:30:54.365Z,62.05
2023-03-19T08:33:28.546Z,61.82
2023-03-19T08:36:11.564Z,60.47
2023-03-19T08:38:48.108Z,61.14
2023-03-19T08:41:23.227Z,61.12
2023-03-19T08:43:56.747Z,59.76
2023-03-19T08:46:31.458Z,59.80
2023-03-19T08:49:07.018Z,58.91
2023-03-19T08:51:41.964Z,58.77
2023-03-19T08:54:16.449Z,58.41
2023-03-19T08:56:47.899Z,58.23
2023-03-19T08:59:21.161Z,57.89
2023-03-19T09:01:55.644Z,57.92
2023-03-19T09:04:28.205Z,57.70
2023-03-19T09:07:00.754Z,57.77
2023-03-19T09:09:33.276Z,57.34
2023-03-19T09:12:06.107Z,55.91
2023-03-19T09:14:39.989Z,55.31
2023-03-19T09:17:13.491Z,55.01
2023-03-19T09:19:47.445Z,54.80
2023-03-19T09:22:21.195Z,55.11
2023-03-19T09:24:56.447Z,55.15
2023-03-19T09:27:30.829Z,54.95
2023-03-19T09:30:05.986Z,54.43
2023-03-19T09:32:38.677Z,54.20
2023-03-19T09:35:12.654Z,54.47
2023-03-19T09:37:45.208Z,54.56
2023-03-19T09:40:26.392Z,54.68
2023-03-19T09:43:08.007Z,53.99
2023-03-19T09:45:42.355Z,53.42
2023-03-19T09:48:23.553Z,54.39
2023-03-19T09:50:58.775Z,52.51
2023-03-19T09:53:41.537Z,52.82
2023-03-19T09:56:19.513Z,52.37
2023-03-19T09:58:52.378Z,52.00
2023-03-19T10:01:34.623Z,51.94
2023-03-19T10:04:28.180Z,52.19
2023-03-19T10:07:10.897Z,53.11
2023-03-19T10:09:56.783Z,52.40
2023-03-19T10:12:46.048Z,52.44
2023-03-19T10:15:27.421Z,52.35
2023-03-19T10:18:08.354Z,52.85
2023-03-19T10:20:51.231Z,53.00
2023-03-19T10:23:38.912Z,53.75
2023-03-19T10:26:17.973Z,53.99
2023-03-19T10:29:03.947Z,53.86
2023-03-19T10:31:53.844Z,54.82
2023-03-19T10:34:42.935Z,53.98
2023-03-19T10:37:20.840Z,53.92
2023-03-19T10:39:56.677Z,54.39
2023-03-19T10:42:49.446Z,53.94
2023-03-19T10:45:29.053Z,54.07
2023-03-19T10:48:03.608Z,54.88
2023-03-19T10:50:39.608Z,54.65
2023-03-19T10:53:30.822Z,54.59
2023-03-19T10:56:07.142Z,55.43
2023-03-19T10:58:40.794Z,55.83
2023-03-19T11:01:14.381Z,56.17
2023-03-19T11:03:57.167Z,56.01
2023-03-19T11:06:33.010Z,56.34
2023-03-19T11:09:15.537Z,56.47
2023-03-19T11:11:50.782Z,57.28
2023-03-19T11:14:32.833Z,55.78
2023-03-19T11:17:18.580Z,55.66
2023-03-19T11:19:54.941Z,56.08
2023-03-19T11:22:29.735Z,55.69
2023-03-19T11:25:02.215Z,55.36
2023-03-19T11:27:37.291Z,55.57
2023-03-19T11:30:20.804Z,56.13
2023-03-19T11:33:27.235Z,55.85
2023-03-19T11:36:06.835Z,55.70
2023-03-19T11:38:49.652Z,55.60
2023-03-19T11:41:32.660Z,56.08
2023-03-19T11:44:12.053Z,55.86
2023-03-19T11:46:55.630Z,55.82
2023-03-19T11:49:44.958Z,55.18
2023-03-19T11:52:22.256Z,54.87
2023-03-19T11:55:08.055Z,54.85
2023-03-19T11:57:58.128Z,54.12
2023-03-19T12:00:39.515Z,53.69
2023-03-19T12:03:43.200Z,54.10
2023-03-19T12:06:27.932Z,53.80
2023-03-19T12:09:04.498Z,53.93
2023-03-19T12:11:48.409Z,53.14
2023-03-19T12:14:32.624Z,52.77
2023-03-19T12:17:24.429Z,52.66
2023-03-19T12:20:18.659Z,52.96
2023-03-19T12:23:01.922Z,53.24
2023-03-19T12:25:46.934Z,54.18
2023-03-19T12:28:25.047Z,54.20
2023-03-19T12:31:26.602Z,54.27
2023-03-19T12:34:14.406Z,54.16
2023-03-19T12:36:54.764Z,53.98
2023-03-19T12:39:33.696Z,54.02
2023-03-19T12:42:09.788Z,54.07
2023-03-19T12:44:49.030Z,53.75
2023-03-19T12:47:26.923Z,53.96
2023-03-19T12:50:04.670Z,53.89
2023-03-19T12:52:40.603Z,53.64
2023-03-19T12:55:20.951Z,53.71
2023-03-19T12:57:55.885Z,53.65
2023-03-19T13:00:35.552Z,53.47
2023-03-19T13:03:14.765Z,53.15
2023-03-19T13:05:53.790Z,53.15
2023-03-19T13:08:35.023Z,53.77
2023-03-19T13:11:12.733Z,53.20
2023-03-19T13:13:52.672Z,52.73
2023-03-19T13:16:41.232Z,52.58
2023-03-19T13:19:23.029Z,52.63
2023-03-19T13:22:00.044Z,53.13
2023-03-19T13:24:36.487Z,53.72
2023-03-19T13:27:20.797Z,53.71
2023-03-19T13:30:04.458Z,53.73
2023-03-19T13:32:42.069Z,54.39
2023-03-19T13:35:36.644Z,54.30
2023-03-19T13:38:20.042Z,53.04
2023-03-19T13:40:54.603Z,53.52
2023-03-19T13:43:44.245Z,53.73
2023-03-19T13:46:39.999Z,53.99
2023-03-19T13:49:32.252Z,54.71
2023-03-19T13:52:37.968Z,52.05
2023-03-19T13:55:34.477Z,51.17
2023-03-19T13:58:49.092Z,51.12
2023-03-19T14:01:38.622Z,50.28
2023-03-19T14:04:23.831Z,50.60
2023-03-19T14:06:59.617Z,50.32
2023-03-19T14:09:39.915Z,50.43
2023-03-19T14:12:31.290Z,50.46
2023-03-19T14:15:18.022Z,52.86
2023-03-19T14:18:02.001Z,54.20
2023-03-19T14:20:47.764Z,56.03
2023-03-19T14:23:39.033Z,54.93
2023-03-19T14:26:25.854Z,55.73
2023-03-19T14:29:02.618Z,56.04
2023-03-19T14:31:44.184Z,56.22
2023-03-19T14:34:25.835Z,54.39
2023-03-19T14:37:06.524Z,53.23
2023-03-19T14:39:43.729Z,53.04
2023-03-19T14:42:23.778Z,53.64
2023-03-19T14:45:36.216Z,53.06
2023-03-19T14:48:21.330Z,52.82
2023-03-19T14:51:17.510Z,52.52
2023-03-19T14:53:55.090Z,51.82
2023-03-19T14:56:33.317Z,51.54
2023-03-19T14:59:07.889Z,52.30
2023-03-19T15:01:46.007Z,52.61
2023-03-19T15:04:22.799Z,54.21
2023-03-19T15:06:59.002Z,54.40
2023-03-19T15:09:34.903Z,54.67
2023-03-19T15:12:39.646Z,54.29
2023-03-19T15:15:23.409Z,53.47
2023-03-19T15:18:04.652Z,53.01
2023-03-19T15:20:40.787Z,54.40
2023-03-19T15:23:26.268Z,54.35
2023-03-19T15:26:01.938Z,54.77
2023-03-19T15:28:45.837Z,55.65
2023-03-19T15:31:31.800Z,54.50
2023-03-19T15:34:23.224Z,53.07
2023-03-19T15:37:00.998Z,52.53
2023-03-19T15:39:37.042Z,53.06
2023-03-19T15:42:11.094Z,52.92
2023-03-19T15:44:47.780Z,53.13
2023-03-19T15:47:24.586Z,53.80
2023-03-19T15:50:00.685Z,54.36
2023-03-19T15:52:38.495Z,54.82
2023-03-19T15:55:14.013Z,54.96
2023-03-19T15:57:46.848Z,54.52
2023-03-19T16:00:22.250Z,53.85
2023-03-19T16:02:55.354Z,53.70
2023-03-19T16:05:30.421Z,54.64
2023-03-19T16:08:05.268Z,55.51
2023-03-19T16:10:41.289Z,55.01
2023-03-19T16:13:39.590Z,53.70
2023-03-19T16:16:19.723Z,54.29
2023-03-19T16:18:56.808Z,54.44
2023-03-19T16:21:37.010Z,54.75
2023-03-19T16:24:24.298Z,55.35
2023-03-19T16:27:00.961Z,55.99
2023-03-19T16:29:38.003Z,56.37
2023-03-19T16:32:23.551Z,56.34
2023-03-19T16:34:58.503Z,56.88
2023-03-19T16:37:39.880Z,57.75
2023-03-19T16:40:42.676Z,58.24
2023-03-19T16:43:25.239Z,58.43
2023-03-19T16:46:12.665Z,58.50
2023-03-19T16:48:45.428Z,58.71
2023-03-19T16:51:23.214Z,58.58
2023-03-19T16:53:55.776Z,59.01
2023-03-19T16:56:28.297Z,59.10
2023-03-19T16:59:02.874Z,59.06
2023-03-19T17:01:36.056Z,58.92
2023-03-19T17:04:17.844Z,58.73
2023-03-19T17:06:50.497Z,58.81
2023-03-19T17:09:23.503Z,58.78
2023-03-19T17:11:57.357Z,58.69
2023-03-19T17:14:31.334Z,58.58
2023-03-19T17:17:04.354Z,58.28
2023-03-19T17:19:40.598Z,58.66
2023-03-19T17:22:15.919Z,58.59
2023-03-19T17:24:48.559Z,58.56
2023-03-19T17:27:23.174Z,58.94
2023-03-19T17:29:55.949Z,58.59
2023-03-19T17:32:29.512Z,58.58
2023-03-19T17:35:01.995Z,58.88
2023-03-19T17:37:35.997Z,59.13
2023-03-19T17:40:18.480Z,59.48
2023-03-19T17:42:52.561Z,59.49
2023-03-19T17:45:29.904Z,59.83
2023-03-19T17:48:02.476Z,59.91
2023-03-19T17:50:36.483Z,60.09
2023-03-19T17:53:14.209Z,59.99
2023-03-19T17:55:47.280Z,59.89
2023-03-19T17:58:22.865Z,60.15
2023-03-19T18:16:25.267Z,61.30
2023-03-19T18:19:02.583Z,61.40
2023-03-19T18:21:35.487Z,61.18
2023-03-19T18:24:10.581Z,61.39
2023-03-19T18:26:43.218Z,61.72
2023-03-19T18:29:16.402Z,62.51
2023-03-19T18:31:51.524Z,63.04
2023-03-19T18:34:26.604Z,63.18
2023-03-19T18:37:01.386Z,63.22
2023-03-19T18:39:38.102Z,62.93
2023-03-19T18:42:13.493Z,62.70
2023-03-19T18:44:46.228Z,62.61
2023-03-19T18:47:19.083Z,62.61
2023-03-19T18:49:54.370Z,62.54
2023-03-19T18:52:28.130Z,62.57
2023-03-19T18:55:01.121Z,62.59
2023-03-19T18:57:34.049Z,62.44
2023-03-19T19:00:07.748Z,62.40
2023-03-19T19:02:40.427Z,61.98
2023-03-19T19:05:17.876Z,61.95
2023-03-19T19:07:50.385Z,61.56
2023-03-19T19:10:23.475Z,61.62
2023-03-19T19:12:58.537Z,61.35
2023-03-19T19:15:34.808Z,61.20
2023-03-19T19:18:16.186Z,61.19
2023-03-19T19:20:56.020Z,61.15
2023-03-19T19:23:30.525Z,61.29
2023-03-19T19:26:04.467Z,61.24
2023-03-19T19:28:41.495Z,61.28
2023-03-19T19:31:25.917Z,61.45
2023-03-19T19:34:01.091Z,61.63
2023-03-19T19:36:35.762Z,62.14
2023-03-19T19:39:08.634Z,62.57
2023-03-19T19:41:43.790Z,62.71
2023-03-19T19:44:20.301Z,62.28
2023-03-19T19:46:54.642Z,62.11
2023-03-19T19:49:27.401Z,62.05
2023-03-19T19:51:59.928Z,62.09
2023-03-19T19:54:32.475Z,61.87
2023-03-19T19:57:06.703Z,61.75
2023-03-19T19:59:39.822Z,61.65
2023-03-19T20:02:22.735Z,61.57
2023-03-19T20:04:56.119Z,61.54
2023-03-19T20:07:29.228Z,61.41
2023-03-19T20:10:02.562Z,61.42
2023-03-19T20:12:35.529Z,61.11
2023-03-19T20:15:17.497Z,61.08
2023-03-19T20:17:51.895Z,61.13
2023-03-19T20:20:28.394Z,61.05
2023-03-19T20:23:02.198Z,61.33
2023-03-19T20:25:35.143Z,61.18
2023-03-19T20:28:11.310Z,61.32
2023-03-19T20:30:44.117Z,61.50
2023-03-19T20:33:18.322Z,61.28
2023-03-19T20:35:50.957Z,61.28
2023-03-19T20:38:23.538Z,61.41
2023-03-19T20:40:59.449Z,61.18
2023-03-19T20:43:35.241Z,61.14
2023-03-19T20:46:09.054Z,61.45
2023-03-19T20:48:41.868Z,61.79
2023-03-19T20:51:19.587Z,61.64
2023-03-19T20:53:52.899Z,61.91
2023-03-19T20:56:25.846Z,61.98
2023-03-19T20:58:58.568Z,62.03
2023-03-19T21:01:31.412Z,62.00
2023-03-19T21:04:03.933Z,62.10
2023-03-19T21:06:51.997Z,62.13
2023-03-19T21:09:26.096Z,62.17
2023-03-19T21:11:58.688Z,62.17
2023-03-19T21:14:31.246Z,62.23
2023-03-19T21:17:03.774Z,62.10
2023-03-19T21:19:37.296Z,62.12
2023-03-19T21:22:12.934Z,62.30
2023-03-19T21:24:46.209Z,62.24
2023-03-19T21:27:23.135Z,62.19
2023-03-19T21:29:56.472Z,62.39
2023-03-19T21:32:29.142Z,62.70
2023-03-19T21:35:01.662Z,62.57
2023-03-19T21:37:34.321Z,62.61
2023-03-19T21:40:15.904Z,62.59
2023-03-19T21:42:52.407Z,62.40
2023-03-19T21:45:29.753Z,62.38
2023-03-19T21:48:20.496Z,62.39
2023-03-19T21:50:55.376Z,62.52
2023-03-19T21:53:26.930Z,62.58
2023-03-19T21:56:01.672Z,62.74
2023-03-19T21:58:38.274Z,62.97
2023-03-19T22:01:19.502Z,63.15
2023-03-19T22:03:52.532Z,63.53
2023-03-19T22:06:26.382Z,63.23
2023-03-19T22:08:59.362Z,63.18
2023-03-19T22:11:34.594Z,63.12
2023-03-19T22:14:09.268Z,63.15
2023-03-19T22:16:42.440Z,62.90
2023-03-19T22:19:17.951Z,62.81
2023-03-19T22:21:50.949Z,63.03
2023-03-19T22:24:23.674Z,62.83
2023-03-19T22:26:59.553Z,62.92
2023-03-19T22:29:34.524Z,62.82
2023-03-19T22:32:15.873Z,63.18
2023-03-19T22:34:48.465Z,63.59
2023-03-19T22:37:27.943Z,63.79
2023-03-19T22:40:00.425Z,63.26
2023-03-19T22:42:32.888Z,62.83
2023-03-19T22:45:06.723Z,62.91
2023-03-19T22:47:40.758Z,62.91
2023-03-19T22:50:20.592Z,62.81
2023-03-19T22:52:53.289Z,63.42
2023-03-19T22:55:26.148Z,63.17
2023-03-19T22:57:58.468Z,62.78
2023-03-19T23:00:31.082Z,63.15
2023-03-19T23:03:04.436Z,63.42
2023-03-19T23:05:38.844Z,63.40
2023-03-19T23:08:17.506Z,63.39
2023-03-19T23:10:50.206Z,63.80
2023-03-19T23:13:23.310Z,64.06
2023-03-19T23:16:00.066Z,63.97
2023-03-19T23:18:34.980Z,63.97
2023-03-19T23:21:08.317Z,63.91
2023-03-19T23:23:42.173Z,63.87
2023-03-19T23:26:28.616Z,63.77
2023-03-19T23:29:05.904Z,63.80
2023-03-19T23:31:38.389Z,63.85
2023-03-19T23:34:13.101Z,63.90
2023-03-19T23:36:45.965Z,63.80
2023-03-19T23:39:18.678Z,63.95
2023-03-19T23:41:53.899Z,63.89
2023-03-19T23:44:29.044Z,63.83
2023-03-19T23:47:03.821Z,63.81
2023-03-19T23:49:36.341Z,64.04
2023-03-19T23:52:11.758Z,64.27
2023-03-19T23:54:44.117Z,64.34
2023-03-19T23:57:18.318Z,64.45
2023-03-19T23:59:53.517Z,64.19
